CheckWX is a tool to help pilots better visualize weather data.  It is not intended as a substitute for an official pre-flight weather briefing.

05:41:36 UTC

FNKU TAF
Kuito Airport
Kuito, Angola
TAF FNKU 252300Z 2600/2612 VRB03KT 8000 BKN040 BECMG 2610/2612 11005KT CAVOK

Aug-26@
00:00 UTC

Aug-26 @ 00:00 UTC

Aug-26@
10:00 UTC

Aug-26 @ 10:00 UTC

TAF FNKU 252300Z 2600/2612 VRB03KT 8000 BKN040
Wind
  • Variable at 3 KTS
Cloud Levels
  • Broken at 4,000' AGL

Aug-26@
10:00 UTC

Aug-26 @ 10:00 UTC

Aug-26@
12:00 UTC

Aug-26 @ 12:00 UTC

BECMG 2610/2612 11005KT CAVOK

Becoming

Becoming Conditions expected by Mon, Aug 26, 2019 @ 12:00 UTC

Wind
  • 110° at 5 KTS
Conditions
No significant weather
Cloud Levels
  • No significant clouds